createdAt,value
2017-10-31T00:01:50.154Z,1.87
2017-10-31T00:04:18.257Z,1.90
2017-10-31T00:06:46.342Z,1.50
2017-10-31T00:09:14.458Z,1.87
2017-10-31T00:11:43.211Z,1.47
2017-10-31T00:14:12.078Z,1.30
2017-10-31T00:16:40.938Z,1.33
2017-10-31T00:19:10.304Z,1.73
2017-10-31T00:21:38.412Z,1.60
2017-10-31T00:24:13.175Z,1.80
2017-10-31T00:26:41.258Z,1.43
2017-10-31T00:29:09.364Z,2.03
2017-10-31T00:31:50.791Z,1.60
2017-10-31T00:34:19.712Z,1.60
2017-10-31T00:36:47.798Z,1.90
2017-10-31T00:39:15.899Z,1.97
2017-10-31T00:41:43.986Z,1.70
2017-10-31T00:44:12.098Z,2.40
2017-10-31T00:46:40.186Z,2.30
2017-10-31T00:49:08.273Z,1.80
2017-10-31T00:51:36.363Z,1.60
2017-10-31T00:54:04.878Z,2.30
2017-10-31T00:56:32.974Z,1.40
2017-10-31T00:59:01.922Z,2.10
2017-10-31T01:01:30.038Z,1.50
2017-10-31T01:03:58.131Z,2.23
2017-10-31T01:06:26.255Z,1.80
2017-10-31T01:08:54.333Z,1.47
2017-10-31T01:11:22.449Z,2.43
2017-10-31T01:13:50.534Z,2.00
2017-10-31T01:16:18.742Z,1.60
2017-10-31T01:18:46.824Z,1.67
2017-10-31T01:21:14.916Z,2.43
2017-10-31T01:23:43.011Z,2.30
2017-10-31T01:26:11.890Z,1.87
2017-10-31T01:28:40.746Z,2.10
2017-10-31T01:31:08.842Z,1.80
2017-10-31T01:33:36.974Z,2.60
2017-10-31T01:36:05.830Z,1.87
2017-10-31T01:38:33.909Z,2.10
2017-10-31T01:41:02.773Z,2.17
2017-10-31T01:43:31.665Z,2.37
2017-10-31T01:45:59.801Z,3.00
2017-10-31T01:48:28.651Z,2.00
2017-10-31T01:50:56.738Z,2.00
2017-10-31T01:53:25.598Z,2.20
2017-10-31T01:55:54.465Z,2.83
2017-10-31T01:58:22.566Z,2.13
2017-10-31T02:00:50.645Z,2.03
2017-10-31T02:03:19.237Z,2.23
2017-10-31T02:05:47.317Z,1.80
2017-10-31T02:08:16.177Z,2.20
2017-10-31T02:10:44.267Z,2.50
2017-10-31T02:13:12.384Z,1.80
2017-10-31T02:15:40.466Z,2.80
2017-10-31T02:18:09.334Z,2.23
2017-10-31T02:20:38.193Z,2.43
2017-10-31T02:23:06.335Z,1.90
2017-10-31T02:25:34.440Z,2.13
2017-10-31T02:28:02.539Z,2.40
2017-10-31T02:30:30.636Z,3.37
2017-10-31T02:32:59.483Z,1.97
2017-10-31T02:35:27.577Z,2.20
2017-10-31T02:37:56.435Z,2.57
2017-10-31T02:40:25.318Z,1.97
2017-10-31T02:42:53.402Z,1.77
2017-10-31T02:45:21.499Z,1.97
2017-10-31T02:47:49.598Z,2.47
2017-10-31T02:50:18.455Z,1.97
2017-10-31T02:52:47.293Z,2.57
2017-10-31T02:55:15.394Z,2.20
2017-10-31T02:57:44.294Z,2.47
2017-10-31T03:00:12.398Z,2.30
2017-10-31T03:02:40.530Z,3.00
2017-10-31T03:05:08.631Z,2.20
2017-10-31T03:07:37.490Z,1.83
2017-10-31T03:10:05.597Z,2.20
2017-10-31T03:12:33.681Z,1.83
2017-10-31T03:15:01.760Z,2.20
2017-10-31T03:17:29.849Z,2.37
2017-10-31T03:19:57.934Z,2.03
2017-10-31T03:22:26.740Z,2.40
2017-10-31T03:24:54.825Z,2.90
2017-10-31T03:27:22.913Z,2.23
2017-10-31T03:29:51.003Z,2.40
2017-10-31T03:32:19.085Z,2.13
2017-10-31T03:34:47.939Z,2.40
2017-10-31T03:37:16.021Z,2.80
2017-10-31T03:39:44.098Z,1.90
2017-10-31T03:42:12.187Z,2.33
2017-10-31T03:44:40.266Z,2.00
2017-10-31T03:47:09.130Z,2.03
2017-10-31T03:49:37.208Z,2.43
2017-10-31T03:52:06.075Z,2.40
2017-10-31T03:54:34.973Z,2.30
2017-10-31T03:57:03.091Z,2.60
2017-10-31T03:59:31.162Z,3.50
2017-10-31T04:02:00.018Z,2.80
2017-10-31T04:04:28.102Z,2.77
2017-10-31T04:06:57.198Z,3.47
2017-10-31T04:09:25.275Z,3.90
2017-10-31T04:11:53.362Z,3.17
2017-10-31T04:14:21.449Z,3.10
2017-10-31T04:16:50.309Z,3.07
2017-10-31T04:19:18.401Z,3.00
2017-10-31T04:21:57.403Z,2.97
2017-10-31T04:24:25.491Z,2.80
2017-10-31T04:26:53.579Z,3.20
2017-10-31T04:29:21.661Z,2.90
2017-10-31T04:31:49.750Z,4.83
2017-10-31T04:34:17.839Z,3.17
2017-10-31T04:36:45.926Z,3.00
2017-10-31T04:39:14.781Z,2.80
2017-10-31T04:41:43.671Z,3.10
2017-10-31T04:44:12.521Z,3.20
2017-10-31T04:46:40.672Z,3.63
2017-10-31T04:49:18.353Z,4.00
2017-10-31T04:51:47.171Z,3.60
2017-10-31T04:54:15.283Z,2.80
2017-10-31T04:56:46.158Z,3.03
2017-10-31T04:59:17.093Z,3.10
2017-10-31T05:01:45.177Z,2.70
2017-10-31T05:04:13.797Z,2.80
2017-10-31T05:06:43.120Z,2.83
2017-10-31T05:09:22.203Z,3.00
2017-10-31T05:11:51.465Z,3.10
2017-10-31T05:14:19.574Z,3.83
2017-10-31T05:16:47.701Z,3.20
2017-10-31T05:19:21.639Z,2.77
2017-10-31T05:21:49.766Z,3.40
2017-10-31T05:24:25.966Z,3.93
2017-10-31T05:26:56.939Z,3.37
2017-10-31T05:29:40.524Z,3.37
2017-10-31T05:32:33.851Z,3.00
2017-10-31T05:35:15.662Z,3.93
2017-10-31T05:40:48.280Z,3.90
2017-10-31T05:43:17.203Z,3.50
2017-10-31T05:48:43.138Z,3.80
2017-10-31T05:51:11.239Z,3.70
2017-10-31T05:53:39.348Z,5.27
2017-10-31T05:56:09.315Z,4.93
2017-10-31T05:58:37.441Z,4.60
2017-10-31T06:01:07.439Z,2.93
2017-10-31T06:03:36.300Z,4.17
2017-10-31T06:06:04.381Z,4.33
2017-10-31T06:08:32.471Z,4.40
2017-10-31T06:11:01.534Z,4.50
2017-10-31T06:13:29.636Z,4.90
2017-10-31T06:15:57.757Z,4.90
2017-10-31T06:18:25.853Z,6.20
2017-10-31T06:21:01.318Z,5.50
2017-10-31T06:23:35.174Z,4.27
2017-10-31T06:26:08.930Z,4.73
2017-10-31T06:28:42.602Z,4.63
2017-10-31T06:31:16.286Z,4.77
2017-10-31T06:34:00.890Z,5.33
2017-10-31T06:36:29.745Z,5.57
2017-10-31T06:38:57.854Z,6.47
2017-10-31T06:41:25.950Z,6.60
2017-10-31T06:43:54.046Z,5.50
2017-10-31T06:46:22.133Z,5.13
2017-10-31T06:48:50.229Z,4.20
2017-10-31T06:51:19.273Z,4.70
2017-10-31T06:53:47.377Z,5.43
2017-10-31T06:56:15.476Z,4.90
2017-10-31T06:58:43.569Z,5.20
2017-10-31T07:01:14.678Z,4.77
2017-10-31T07:03:42.766Z,4.73
2017-10-31T07:06:11.664Z,4.70
2017-10-31T07:08:40.758Z,6.70
2017-10-31T07:11:19.468Z,6.77
2017-10-31T07:13:51.418Z,7.20
2017-10-31T07:16:19.509Z,6.03
2017-10-31T07:18:47.606Z,7.10
2017-10-31T07:21:16.458Z,6.37
2017-10-31T07:23:44.550Z,6.53
2017-10-31T07:26:12.659Z,5.57
2017-10-31T07:28:40.731Z,5.70
2017-10-31T07:31:14.507Z,4.97
2017-10-31T07:33:42.593Z,4.67
2017-10-31T07:36:10.681Z,6.50
2017-10-31T07:38:38.801Z,5.63
2017-10-31T07:41:10.272Z,4.97
2017-10-31T07:43:38.364Z,5.83
2017-10-31T07:46:06.455Z,5.20
2017-10-31T07:48:34.550Z,5.83
2017-10-31T07:51:02.638Z,5.97
2017-10-31T07:53:31.496Z,5.30
2017-10-31T07:55:59.585Z,5.20
2017-10-31T08:01:23.432Z,5.63
2017-10-31T08:03:53.378Z,5.40
2017-10-31T08:06:21.474Z,5.93
2017-10-31T08:08:49.576Z,5.70
2017-10-31T08:11:17.697Z,5.60
2017-10-31T08:13:45.799Z,6.27
2017-10-31T08:16:14.671Z,5.60
2017-10-31T08:18:42.881Z,5.63
2017-10-31T08:23:49.646Z,4.67
2017-10-31T08:26:18.517Z,4.90
2017-10-31T08:28:47.114Z,5.73
2017-10-31T08:31:15.243Z,4.67
2017-10-31T08:33:48.483Z,4.67
2017-10-31T08:36:16.560Z,4.77
2017-10-31T08:38:44.686Z,4.30
2017-10-31T08:41:12.800Z,3.93
2017-10-31T08:43:41.917Z,4.60
2017-10-31T08:46:10.050Z,4.20
2017-10-31T08:48:38.159Z,4.00
2017-10-31T08:51:06.290Z,3.80
2017-10-31T08:53:34.411Z,3.50
2017-10-31T08:56:03.267Z,3.60
2017-10-31T08:58:33.177Z,3.90
2017-10-31T09:01:02.040Z,4.00
2017-10-31T09:03:30.938Z,3.50
2017-10-31T09:05:59.801Z,3.50
2017-10-31T09:08:28.694Z,4.00
2017-10-31T09:10:57.765Z,4.20
2017-10-31T09:13:25.889Z,4.07
2017-10-31T09:15:55.970Z,4.07
2017-10-31T09:18:24.082Z,4.40
2017-10-31T09:20:52.311Z,3.97
2017-10-31T09:23:20.427Z,4.20
2017-10-31T09:25:48.548Z,3.20
2017-10-31T09:28:16.674Z,3.80
2017-10-31T09:30:45.646Z,4.63
2017-10-31T09:33:13.750Z,4.87
2017-10-31T09:35:41.846Z,3.50
2017-10-31T09:38:09.951Z,2.90
2017-10-31T09:40:38.806Z,2.83
2017-10-31T09:43:06.920Z,3.40
2017-10-31T09:45:34.994Z,2.73
2017-10-31T09:48:03.182Z,2.93
2017-10-31T09:50:32.162Z,3.20
2017-10-31T09:53:00.329Z,3.40
2017-10-31T09:55:28.557Z,3.70
2017-10-31T09:57:58.684Z,3.50
2017-10-31T10:00:26.777Z,2.80
2017-10-31T10:02:54.929Z,3.03
2017-10-31T10:05:23.053Z,3.03
2017-10-31T10:07:51.985Z,2.67
2017-10-31T10:10:20.932Z,3.30
2017-10-31T10:12:49.076Z,2.80
2017-10-31T10:15:17.245Z,2.67
2017-10-31T10:17:45.654Z,2.83
2017-10-31T10:20:14.026Z,3.30
2017-10-31T10:22:42.789Z,2.20
2017-10-31T10:25:12.097Z,2.70
2017-10-31T10:27:40.762Z,2.57
2017-10-31T10:30:09.367Z,2.63
2017-10-31T10:32:37.769Z,2.70
2017-10-31T10:35:14.298Z,2.70
2017-10-31T10:37:42.689Z,2.40
2017-10-31T10:40:14.785Z,2.20
2017-10-31T10:42:43.235Z,3.30
2017-10-31T10:45:12.951Z,2.83
2017-10-31T10:47:41.354Z,2.30
2017-10-31T10:50:09.634Z,1.90
2017-10-31T10:52:42.592Z,2.90
2017-10-31T10:55:10.695Z,2.10
2017-10-31T10:57:38.934Z,2.60
2017-10-31T11:00:07.795Z,2.30
2017-10-31T11:02:35.912Z,2.40
2017-10-31T11:05:04.720Z,2.93
2017-10-31T11:07:34.869Z,2.50
2017-10-31T11:10:03.044Z,2.47
2017-10-31T11:12:31.171Z,3.00
2017-10-31T11:14:59.295Z,2.90
2017-10-31T11:17:28.350Z,3.00
2017-10-31T11:19:57.481Z,3.27
2017-10-31T11:22:26.428Z,3.67
2017-10-31T11:24:54.555Z,4.00
2017-10-31T11:27:22.700Z,2.90
2017-10-31T11:29:50.996Z,3.60
2017-10-31T11:32:19.135Z,2.90
2017-10-31T11:34:47.278Z,2.30
2017-10-31T11:37:15.372Z,2.50
2017-10-31T11:39:43.781Z,2.50
2017-10-31T11:42:12.860Z,2.87
2017-10-31T11:44:41.089Z,2.43
2017-10-31T11:47:09.193Z,3.50
2017-10-31T11:49:37.386Z,3.07
2017-10-31T11:52:05.508Z,12.10
2017-10-31T11:54:33.641Z,3.20
2017-10-31T11:57:01.776Z,3.20
2017-10-31T11:59:30.680Z,3.00
2017-10-31T12:01:58.855Z,3.03
2017-10-31T12:04:27.855Z,4.27
2017-10-31T12:06:57.089Z,3.73
2017-10-31T12:09:25.235Z,4.10
2017-10-31T12:11:54.181Z,3.73
2017-10-31T12:14:22.303Z,3.30
2017-10-31T12:16:56.223Z,3.83
2017-10-31T12:19:24.354Z,3.50
2017-10-31T12:22:05.028Z,3.17
2017-10-31T12:24:33.148Z,4.17
2017-10-31T12:27:01.294Z,4.00
2017-10-31T12:29:31.473Z,2.97
2017-10-31T12:32:00.363Z,3.27
2017-10-31T12:34:28.599Z,5.83
2017-10-31T12:36:56.975Z,2.83
2017-10-31T12:39:25.407Z,3.53
2017-10-31T12:41:55.430Z,3.13
2017-10-31T12:44:23.905Z,3.87
2017-10-31T12:46:53.468Z,3.30
2017-10-31T12:49:21.982Z,2.60
2017-10-31T12:51:51.184Z,2.50
2017-10-31T12:54:19.309Z,3.03
2017-10-31T12:56:47.424Z,3.03
2017-10-31T12:59:16.342Z,3.03
2017-10-31T13:01:45.243Z,3.57
2017-10-31T13:04:13.453Z,3.27
2017-10-31T13:06:42.206Z,3.10
2017-10-31T13:09:10.412Z,2.40
2017-10-31T13:11:40.845Z,2.80
2017-10-31T13:14:09.929Z,3.60
2017-10-31T13:16:38.054Z,2.93
2017-10-31T13:19:06.215Z,3.50
2017-10-31T13:21:34.426Z,3.00
2017-10-31T13:24:03.110Z,2.93
2017-10-31T13:26:31.509Z,3.20
2017-10-31T13:28:59.941Z,3.20
2017-10-31T13:31:31.882Z,3.83
2017-10-31T13:34:01.102Z,2.83
2017-10-31T13:36:29.610Z,3.47
2017-10-31T13:38:57.932Z,3.90
2017-10-31T13:41:27.287Z,3.50
2017-10-31T13:43:59.492Z,3.07
2017-10-31T13:46:29.067Z,3.20
2017-10-31T13:48:58.022Z,3.17
2017-10-31T13:51:28.477Z,3.10
2017-10-31T13:53:56.582Z,3.17
2017-10-31T13:56:24.724Z,3.00
2017-10-31T13:58:54.847Z,3.27
2017-10-31T14:01:23.046Z,4.03
2017-10-31T14:03:51.372Z,2.90
2017-10-31T14:06:19.778Z,3.47
2017-10-31T14:08:49.044Z,3.03
2017-10-31T14:11:17.393Z,3.90
2017-10-31T14:13:45.503Z,3.10
2017-10-31T14:16:19.920Z,3.03
2017-10-31T14:18:48.123Z,3.57
2017-10-31T14:21:17.180Z,3.40
2017-10-31T14:23:45.356Z,3.20
2017-10-31T14:26:13.467Z,3.33
2017-10-31T14:28:42.357Z,3.23
2017-10-31T14:31:11.274Z,4.30
2017-10-31T14:33:40.419Z,3.17
2017-10-31T14:36:08.541Z,3.90
2017-10-31T14:38:36.663Z,3.70
2017-10-31T14:41:05.794Z,3.90
2017-10-31T14:43:35.036Z,3.90
2017-10-31T14:46:03.164Z,4.20
2017-10-31T14:48:31.250Z,3.87
2017-10-31T14:50:59.389Z,3.37
2017-10-31T14:53:27.494Z,3.70
2017-10-31T14:55:56.653Z,3.70
2017-10-31T14:58:25.858Z,3.63
2017-10-31T15:00:53.971Z,3.57
2017-10-31T15:03:26.530Z,3.77
2017-10-31T15:05:54.695Z,4.00
2017-10-31T15:08:22.790Z,4.13
2017-10-31T15:10:50.872Z,4.10
2017-10-31T15:13:19.073Z,4.27
2017-10-31T15:15:47.138Z,4.10
2017-10-31T15:18:15.365Z,3.63
2017-10-31T15:20:43.586Z,4.00
2017-10-31T15:23:15.982Z,3.80
2017-10-31T15:25:44.060Z,4.20
2017-10-31T15:28:12.164Z,4.27
2017-10-31T15:30:41.026Z,4.03
2017-10-31T15:33:09.180Z,5.47
2017-10-31T15:35:37.310Z,5.13
2017-10-31T15:38:10.979Z,4.60
2017-10-31T15:40:39.084Z,4.60
2017-10-31T15:43:07.378Z,5.17
2017-10-31T15:45:35.541Z,5.03
2017-10-31T15:48:05.704Z,5.40
2017-10-31T15:50:33.831Z,4.57
2017-10-31T15:53:01.974Z,4.80
2017-10-31T15:55:30.860Z,5.87
2017-10-31T15:57:59.003Z,4.90
2017-10-31T16:00:29.399Z,4.77
2017-10-31T16:02:59.542Z,5.43
2017-10-31T16:05:29.634Z,5.53
2017-10-31T16:07:57.871Z,5.47
2017-10-31T16:10:26.004Z,6.10
2017-10-31T16:12:54.174Z,5.90
2017-10-31T16:15:29.055Z,5.70
2017-10-31T16:17:57.180Z,6.30
2017-10-31T16:20:25.313Z,6.03
2017-10-31T16:22:53.415Z,6.87
2017-10-31T16:25:22.024Z,6.60
2017-10-31T16:27:50.260Z,6.93
2017-10-31T16:30:18.367Z,7.73
2017-10-31T16:32:49.772Z,7.20
2017-10-31T16:35:18.921Z,6.83
2017-10-31T16:37:47.830Z,8.17
2017-10-31T16:40:17.589Z,7.90
2017-10-31T16:42:45.700Z,8.50
2017-10-31T16:45:13.883Z,8.30
2017-10-31T16:47:42.784Z,9.00
2017-10-31T16:50:11.690Z,9.50
2017-10-31T16:52:39.887Z,9.90
2017-10-31T16:55:08.062Z,9.50
2017-10-31T16:57:36.265Z,9.17
2017-10-31T17:00:05.758Z,10.13
2017-10-31T17:02:34.220Z,10.37
2017-10-31T17:05:02.937Z,10.43
2017-10-31T17:07:31.021Z,11.03
2017-10-31T17:10:04.785Z,12.10
2017-10-31T17:12:32.910Z,10.00
2017-10-31T17:15:02.613Z,11.73
2017-10-31T17:17:31.019Z,11.97
2017-10-31T17:19:59.351Z,11.93
2017-10-31T17:22:46.492Z,11.33
2017-10-31T17:25:15.456Z,11.53
2017-10-31T17:27:49.017Z,12.20
2017-10-31T17:30:17.181Z,12.27
2017-10-31T17:32:45.901Z,13.10
2017-10-31T17:35:14.053Z,12.40
2017-10-31T17:37:42.205Z,11.90
2017-10-31T17:40:11.315Z,11.80
2017-10-31T17:42:39.570Z,12.23
2017-10-31T17:45:08.535Z,11.40
2017-10-31T17:47:36.642Z,12.70
2017-10-31T17:50:04.847Z,12.87
2017-10-31T17:52:34.328Z,12.20
2017-10-31T17:55:03.391Z,11.47
2017-10-31T18:03:49.650Z,13.00
2017-10-31T18:06:17.886Z,11.77
2017-10-31T18:08:47.411Z,12.03
2017-10-31T18:11:15.752Z,12.40
2017-10-31T18:13:44.006Z,13.30
2017-10-31T18:16:12.397Z,13.07
2017-10-31T18:18:40.625Z,12.73
2017-10-31T18:21:08.799Z,12.87
2017-10-31T18:23:37.809Z,12.87
2017-10-31T18:26:10.128Z,13.20
2017-10-31T18:28:38.326Z,14.13
2017-10-31T18:31:09.385Z,13.87
2017-10-31T18:33:38.186Z,13.67
2017-10-31T18:36:08.261Z,14.03
2017-10-31T18:38:37.186Z,15.37
2017-10-31T18:41:05.384Z,15.07
2017-10-31T18:43:34.200Z,14.83
2017-10-31T18:46:02.321Z,16.33
2017-10-31T18:48:31.470Z,16.10
2017-10-31T18:51:01.567Z,16.30
2017-10-31T18:53:30.386Z,16.87
2017-10-31T18:56:00.216Z,18.10
2017-10-31T18:58:33.717Z,17.57
2017-10-31T19:36:05.973Z,22.53
2017-10-31T19:38:34.231Z,21.43
2017-10-31T19:41:02.360Z,23.67
2017-10-31T19:43:39.140Z,23.77
2017-10-31T19:46:18.599Z,21.73
2017-10-31T19:51:46.291Z,24.53
2017-10-31T19:54:15.477Z,24.00
2017-10-31T19:56:44.400Z,25.80
2017-10-31T19:59:12.966Z,25.43
2017-10-31T20:01:41.958Z,25.40
2017-10-31T20:04:10.232Z,25.30
2017-10-31T20:06:39.294Z,27.83
2017-10-31T20:09:09.440Z,25.53
2017-10-31T20:11:37.726Z,35.47
2017-10-31T20:14:13.094Z,29.10
2017-10-31T20:16:41.286Z,28.00
2017-10-31T20:19:10.233Z,28.07
2017-10-31T20:21:38.344Z,26.07
2017-10-31T20:24:06.559Z,28.40
2017-10-31T20:26:48.652Z,29.10
2017-10-31T20:29:16.826Z,28.47
2017-10-31T20:31:46.141Z,26.50
2017-10-31T20:34:14.342Z,28.27
2017-10-31T20:36:42.512Z,28.90
2017-10-31T20:39:10.706Z,27.93
2017-10-31T20:41:39.774Z,29.53
2017-10-31T20:44:20.044Z,28.20
2017-10-31T20:46:48.249Z,30.90
2017-10-31T20:49:16.460Z,32.17
2017-10-31T20:51:50.991Z,30.30
2017-10-31T20:54:19.184Z,30.27
2017-10-31T20:56:47.325Z,32.00
2017-10-31T20:59:15.494Z,31.13
2017-10-31T21:01:43.613Z,31.20
2017-10-31T21:04:11.763Z,31.53
2017-10-31T21:06:47.430Z,30.97
2017-10-31T21:09:15.639Z,30.80
2017-10-31T21:11:48.057Z,34.17
2017-10-31T21:14:18.927Z,31.97
2017-10-31T21:16:49.357Z,30.53
2017-10-31T21:19:17.512Z,32.83
2017-10-31T21:21:50.163Z,31.73
2017-10-31T21:24:21.433Z,29.93
2017-10-31T21:26:49.664Z,30.73
2017-10-31T21:29:33.501Z,28.50
2017-10-31T21:32:12.923Z,29.80
2017-10-31T21:34:42.283Z,28.60
2017-10-31T21:37:10.497Z,27.80
2017-10-31T21:39:38.853Z,27.93
2017-10-31T21:42:09.915Z,28.87
2017-10-31T21:44:41.160Z,28.17
2017-10-31T21:47:11.522Z,29.47
2017-10-31T21:49:42.068Z,27.90
2017-10-31T21:52:11.360Z,28.03
2017-10-31T21:54:39.649Z,28.77
2017-10-31T21:57:09.681Z,26.90
2017-10-31T21:59:40.639Z,28.10
2017-10-31T22:02:09.498Z,28.17
2017-10-31T22:04:38.485Z,28.00
2017-10-31T22:07:08.027Z,29.17
2017-10-31T22:09:37.008Z,28.33
2017-10-31T22:12:05.158Z,25.63
2017-10-31T22:14:34.438Z,28.17
2017-10-31T22:17:03.571Z,28.07
2017-10-31T22:19:31.761Z,29.43
2017-10-31T22:22:01.764Z,27.13
2017-10-31T22:24:30.083Z,28.03
2017-10-31T22:26:59.056Z,28.27
2017-10-31T22:29:30.716Z,29.20
2017-10-31T22:32:00.839Z,28.80
2017-10-31T22:34:29.305Z,28.23
2017-10-31T22:37:03.353Z,27.80
2017-10-31T22:39:31.576Z,28.10
2017-10-31T22:41:59.728Z,28.63
2017-10-31T22:44:27.980Z,27.53
2017-10-31T22:46:58.237Z,29.33
2017-10-31T22:49:26.462Z,26.73
2017-10-31T22:51:54.657Z,27.70
2017-10-31T22:54:23.616Z,26.50
2017-10-31T22:56:54.244Z,25.63
2017-10-31T23:02:08.305Z,26.53
2017-10-31T23:04:36.486Z,26.03
2017-10-31T23:07:04.674Z,26.13
2017-10-31T23:09:41.834Z,25.03
2017-10-31T23:12:12.449Z,23.67
2017-10-31T23:14:41.849Z,24.13
2017-10-31T23:17:09.992Z,24.67
2017-10-31T23:22:13.688Z,25.00
2017-10-31T23:24:41.860Z,23.30
2017-10-31T23:27:10.849Z,21.83
2017-10-31T23:29:39.044Z,23.10
2017-10-31T23:32:07.257Z,21.00
2017-10-31T23:34:35.457Z,22.97
2017-10-31T23:37:03.627Z,21.70
2017-10-31T23:39:31.801Z,22.20
2017-10-31T23:42:00.588Z,21.33
2017-10-31T23:44:29.990Z,22.47
2017-10-31T23:46:58.250Z,20.50
2017-10-31T23:49:26.415Z,23.00
2017-10-31T23:51:54.556Z,20.80
2017-10-31T23:54:23.435Z,20.83
2017-10-31T23:56:51.568Z,22.70
2017-10-31T23:59:19.710Z,21.90
